Track Баргамон Кирилл

Time Latitude Longitude Accuracy (66% radius in meters) Altitude (meters) Speed (km/hour) Bearing (degrees) Battery (%) GPS flag
06:31:33 57.212921 60.118068 0 0 0 0 1 delete
06:31:29 57.213029 60.118129 0 0 0 0 1 delete
06:31:24 57.213142 60.118103 0 0 0 0 1 delete
06:31:22 57.213162 60.118023 0 0 0 0 1 delete
06:31:17 57.213200 60.117861 0 0 0 0 1 delete
06:31:13 57.213239 60.117767 0 0 0 0 1 delete
06:31:09 57.213268 60.117716 0 0 0 0 1 delete
06:31:04 57.213281 60.117688 0 0 0 0 1 delete
06:31:02 57.213315 60.117622 0 0 0 0 1 delete
06:30:58 57.213409 60.117487 0 0 0 0 1 delete
06:30:55 57.213472 60.117402 0 0 0 0 1 delete
06:30:50 57.213478 60.117128 0 0 0 0 1 delete
06:30:49 57.213462 60.117070 0 0 0 0 1 delete
06:30:46 57.213400 60.116919 0 0 0 0 1 delete
06:30:41 57.213251 60.116899 0 0 0 0 1 delete
06:30:38 57.213189 60.116766 0 0 0 0 1 delete
06:30:35 57.213135 60.116640 0 0 0 0 1 delete
06:30:29 57.213087 60.116354 0 0 0 0 1 delete
06:30:27 57.213076 60.116245 0 0 0 0 1 delete
06:30:22 57.212992 60.116044 0 0 0 0 1 delete
06:30:19 57.213029 60.115924 0 0 0 0 1 delete
06:30:18 57.213044 60.115871 0 0 0 0 1 delete
06:30:12 57.213055 60.115569 0 0 0 0 1 delete
06:30:08 57.213030 60.115393 0 0 0 0 1 delete
06:30:03 57.213123 60.115212 0 0 0 0 1 delete
06:29:57 57.213193 60.114875 0 0 0 0 1 delete
06:29:56 57.213163 60.114835 0 0 0 0 1 delete
06:29:52 57.213076 60.114649 0 0 0 0 1 delete
06:29:48 57.213037 60.114447 0 0 0 0 1 delete
06:29:43 57.213003 60.114374 0 0 0 0 1 delete
06:29:40 57.212987 60.114339 0 0 0 0 1 delete
06:29:35 57.212813 60.114246 0 0 0 0 1 delete
06:29:34 57.212774 60.114257 0 0 0 0 1 delete
06:29:31 57.212674 60.114200 0 0 0 0 1 delete
06:29:26 57.212502 60.114012 0 0 0 0 1 delete
06:29:24 57.212509 60.113937 0 0 0 0 1 delete
06:29:20 57.212546 60.113626 0 0 0 0 1 delete
06:29:19 57.212518 60.113572 0 0 0 0 1 delete
06:29:14 57.212418 60.113343 0 0 0 0 1 delete
06:29:10 57.212423 60.113080 0 0 0 0 1 delete
06:29:08 57.212402 60.112931 0 0 0 0 1 delete
06:29:05 57.212324 60.112884 0 0 0 0 1 delete
06:29:01 57.212203 60.112842 0 0 0 0 1 delete
06:28:57 57.212080 60.112635 0 0 0 0 1 delete
06:28:53 57.211895 60.112683 0 0 0 0 1 delete
06:28:52 57.211858 60.112691 0 0 0 0 1 delete
06:28:50 57.211799 60.112635 0 0 0 0 1 delete
06:28:46 57.211784 60.112366 0 0 0 0 1 delete
06:28:42 57.211781 60.112126 0 0 0 0 1 delete
06:28:39 57.211759 60.111962 0 0 0 0 1 delete